Saturday, August 18, 2018, 2:50 AM GMT
Back to Local

CWDQ, La Tuque

Location: , , Canada Lat: 47.417
Local Time: 2:50 AM GMT ( 2:50 GMT) Lon: -72.8
Time Zone: GMT Elev: 554 ft

Show me the last for .
Show Coded

Time T Td Feel RH Dir Speed Gust Alt SLP Vis Weather Sky Remarks
2018-08-18 02:00 59 58 - 98 340° 2 - - 29.95 0 None
2018-08-18 01:00 59 58 - 97 320° 1 - - 29.96 0 1-hr Precip Total: 0.04"
2018-08-18 00:00 59 56 - 91 250° 1 - - 29.95 0 1-hr Precip Total: 0.35"
2018-08-17 23:00 59 58 - 98 30° 1 - - 29.96 0 1-hr Precip Total: 0.57"
2018-08-17 22:00 59 58 - 98 340° 3 - - 29.97 0 1-hr Precip Total: 0.69"
2018-08-17 21:00 60 59 - 98 340° 7 - - 29.97 0 1-hr Precip Total: 0.43"
2018-08-17 20:00 60 59 - 95 50° 1 - - 29.98 0 1-hr Precip Total: 0.27"
2018-08-17 19:00 60 59 - 95 170° 2 - - 30.01 0 1-hr Precip Total: 0.20"
2018-08-17 18:00 62 60 - 92 170° 2 - - 30.03 0 None
2018-08-17 17:00 66 56 - 69 160° 3 - - 30.03 0 None
2018-08-17 16:00 68 56 - 65 210° 5 - - 30.03 0 None
2018-08-17 15:00 66 55 - 69 180° 3 - - 30.05 0 None
2018-08-17 14:00 65 57 - 74 220° 5 - - 30.06 0 None
2018-08-17 13:00 57 56 - 94 310° 1 - - 30.08 0 None
2018-08-17 12:00 53 53 - 100 200° 1 - - 30.11 0 None
2018-08-17 11:00 50 50 - 100 100° 1 - - 30.10 0 None
2018-08-17 10:00 49 49 - 99 100° 2 - - 30.10 0 None
2018-08-17 09:00 50 50 - 100 110° 1 - - 30.10 0 None
2018-08-17 08:00 49 49 - 99 100° 2 - - 30.09 0 None
2018-08-17 07:00 48 46 - 92 120° 1 - - 30.09 0 None
2018-08-17 06:00 47 46 - 97 - Calm - - 30.10 0 None
2018-08-17 05:00 50 50 - 98 110° 2 - - 30.11 0 None
2018-08-17 04:00 50 49 - 96 120° 2 - - 30.11 0 None
2018-08-17 03:00 53 49 - 88 110° 2 - - 30.10 0 None

Support USWX by starting your Amazon purchase here.